createdAt,value
2022-08-26T00:03:07.371Z,97.1
2022-08-26T00:08:07.109Z,97.1
2022-08-26T00:13:07.271Z,97.1
2022-08-26T00:18:16.907Z,96.8
2022-08-26T00:23:07.260Z,96.5
2022-08-26T00:28:07.079Z,96.7
2022-08-26T00:33:07.390Z,96.8
2022-08-26T00:38:07.065Z,96.6
2022-08-26T00:43:09.383Z,96.4
2022-08-26T00:48:07.053Z,96.2
2022-08-26T00:53:07.151Z,96.4
2022-08-26T00:58:07.044Z,96.3
2022-08-26T01:03:07.510Z,96.1
2022-08-26T01:08:07.015Z,96.4
2022-08-26T01:13:07.215Z,96.6
2022-08-26T01:18:07.018Z,96.9
2022-08-26T01:23:08.547Z,96.6
2022-08-26T01:28:07.020Z,96.2
2022-08-26T01:33:07.100Z,96.1
2022-08-26T01:38:06.999Z,96
2022-08-26T01:43:07.175Z,96.2
2022-08-26T01:48:06.969Z,96.7
2022-08-26T01:53:07.262Z,96.9
2022-08-26T01:58:06.978Z,97
2022-08-26T02:03:07.086Z,97
2022-08-26T02:08:06.966Z,97
2022-08-26T02:13:07.110Z,97.1
2022-08-26T02:18:06.934Z,97.2
2022-08-26T02:23:07.078Z,97.6
2022-08-26T02:28:06.915Z,97.7
2022-08-26T02:33:07.068Z,97.7
2022-08-26T02:38:09.775Z,98.2
2022-08-26T02:43:08.517Z,98.5
2022-08-26T02:48:06.897Z,98.9
2022-08-26T02:53:07.083Z,99.1
2022-08-26T02:58:06.880Z,99.4
2022-08-26T03:03:06.963Z,99.4
2022-08-26T03:08:06.880Z,99.3
2022-08-26T03:18:06.843Z,99.4
2022-08-26T03:23:06.885Z,99.6
2022-08-26T03:33:06.910Z,100
2022-08-26T03:38:06.824Z,100
2022-08-26T04:03:09.837Z,100
2022-08-26T04:08:06.788Z,100
2022-08-26T04:33:11.645Z,100
2022-08-26T05:03:06.950Z,99.4
2022-08-26T05:08:06.705Z,98.5
2022-08-26T05:18:06.724Z,97.9
2022-08-26T05:38:10.435Z,96.1
2022-08-26T05:43:06.776Z,95.9
2022-08-26T05:58:06.665Z,93.8
2022-08-26T06:03:06.891Z,92.1
2022-08-26T06:08:06.643Z,90.7
2022-08-26T06:18:06.640Z,89.6
2022-08-26T06:23:06.619Z,88.2
2022-08-26T06:28:06.611Z,87.1
2022-08-26T06:33:06.711Z,86.5
2022-08-26T06:38:06.593Z,86.3
2022-08-26T06:43:06.806Z,85.6
2022-08-26T06:48:06.585Z,85
2022-08-26T06:53:06.725Z,83.8
2022-08-26T06:58:06.583Z,84
2022-08-26T07:03:06.765Z,82.6
2022-08-26T07:08:06.578Z,81.1
2022-08-26T07:13:06.702Z,79.2
2022-08-26T07:18:06.541Z,79.3
2022-08-26T07:23:06.670Z,77.9
2022-08-26T07:28:06.540Z,74.4
2022-08-26T07:33:06.664Z,72.6
2022-08-26T07:38:06.517Z,70.8
2022-08-26T07:43:06.740Z,69.1
2022-08-26T07:48:06.503Z,69.7
2022-08-26T07:53:06.593Z,70.3
2022-08-26T07:58:06.504Z,69.4
2022-08-26T08:03:06.526Z,67.5
2022-08-26T08:08:25.677Z,67
2022-08-26T08:13:06.580Z,66.6
2022-08-26T08:18:06.600Z,68.1
2022-08-26T08:23:06.453Z,67.6
2022-08-26T08:28:06.456Z,66.6
2022-08-26T08:33:06.459Z,66.3
2022-08-26T08:38:06.427Z,64.8
2022-08-26T08:43:06.556Z,64.1
2022-08-26T08:48:06.443Z,63.1
2022-08-26T08:53:08.847Z,62
2022-08-26T08:58:06.541Z,60.5
2022-08-26T09:03:06.418Z,60.5
2022-08-26T09:08:06.545Z,59.8
2022-08-26T09:13:06.398Z,59.2
2022-08-26T09:18:06.404Z,58.2
2022-08-26T09:23:06.413Z,58.2
2022-08-26T09:28:06.423Z,57.4
2022-08-26T09:33:06.679Z,58.4
2022-08-26T09:38:09.014Z,57.9
2022-08-26T09:43:06.353Z,56.2
2022-08-26T09:48:06.428Z,56.2
2022-08-26T09:53:09.553Z,57
2022-08-26T09:58:07.850Z,57.1
2022-08-26T10:03:06.340Z,57.2
2022-08-26T10:08:06.321Z,58.4
2022-08-26T10:13:06.388Z,58.7
2022-08-26T10:18:06.391Z,59.2
2022-08-26T10:23:06.344Z,59.9
2022-08-26T10:28:06.435Z,61.2
2022-08-26T10:33:06.364Z,61.6
2022-08-26T10:38:06.368Z,62.5
2022-08-26T10:43:11.207Z,63.1
2022-08-26T10:48:06.388Z,63.8
2022-08-26T10:53:06.266Z,64
2022-08-26T10:58:08.199Z,64.6
2022-08-26T11:03:06.286Z,64.9
2022-08-26T11:08:06.297Z,64.5
2022-08-26T11:13:06.322Z,63.9
2022-08-26T11:18:06.260Z,63.8
2022-08-26T11:23:06.238Z,60.5
2022-08-26T11:28:06.321Z,59.4
2022-08-26T11:33:06.237Z,59.7
2022-08-26T11:38:06.249Z,59.6
2022-08-26T11:43:06.232Z,59.3
2022-08-26T11:48:06.257Z,58.1
2022-08-26T11:53:06.545Z,55.4
2022-08-26T11:58:06.209Z,55.3
2022-08-26T12:03:06.388Z,55
2022-08-26T12:08:06.255Z,56.3
2022-08-26T12:13:06.163Z,55.6
2022-08-26T12:18:06.178Z,55.9
2022-08-26T12:23:06.153Z,53.9
2022-08-26T12:28:06.271Z,54
2022-08-26T12:33:13.319Z,50.2
2022-08-26T12:38:06.159Z,49.3
2022-08-26T12:43:06.148Z,48.5
2022-08-26T12:48:06.164Z,50.4
2022-08-26T12:53:06.132Z,51.6
2022-08-26T12:58:06.168Z,50.9
2022-08-26T13:03:06.164Z,48.7
2022-08-26T13:08:06.101Z,47.6
2022-08-26T13:13:06.182Z,47.1
2022-08-26T13:18:06.086Z,47.2
2022-08-26T13:23:06.080Z,48.5
2022-08-26T13:28:06.061Z,46.2
2022-08-26T13:33:06.174Z,47.6
2022-08-26T13:38:06.061Z,44.3
2022-08-26T13:43:06.050Z,43.2
2022-08-26T13:48:06.045Z,44.1
2022-08-26T13:53:06.056Z,45.1
2022-08-26T13:58:06.037Z,45.6
2022-08-26T14:03:08.199Z,44.9
2022-08-26T14:08:06.074Z,45
2022-08-26T14:13:06.055Z,46.2
2022-08-26T14:18:06.020Z,46.2
2022-08-26T14:23:14.327Z,47.3
2022-08-26T14:28:05.987Z,46.4
2022-08-26T14:33:06.023Z,46.5
2022-08-26T14:38:05.991Z,46.4
2022-08-26T14:43:06.005Z,46.4
2022-08-26T14:48:06.005Z,47.5
2022-08-26T14:53:05.973Z,46.4
2022-08-26T14:58:06.021Z,45.9
2022-08-26T15:03:06.163Z,46.7
2022-08-26T15:08:06.053Z,46.6
2022-08-26T15:13:05.939Z,46.5
2022-08-26T15:18:05.969Z,46.7
2022-08-26T15:23:06.333Z,47.5
2022-08-26T15:28:05.931Z,55.9
2022-08-26T15:33:05.935Z,56.3
2022-08-26T15:38:06.028Z,57.3
2022-08-26T15:43:18.346Z,58.7
2022-08-26T15:48:05.958Z,57.1
2022-08-26T15:53:05.881Z,56.3
2022-08-26T15:58:05.931Z,57.3
2022-08-26T16:03:05.867Z,61.8
2022-08-26T16:08:05.917Z,62.4
2022-08-26T16:13:05.885Z,63.1
2022-08-26T16:18:05.870Z,63.4
2022-08-26T16:23:06.043Z,63.8
2022-08-26T16:28:05.990Z,64.2
2022-08-26T16:33:05.910Z,64.9
2022-08-26T16:38:05.905Z,65.5
2022-08-26T16:43:05.826Z,65.7
2022-08-26T16:48:05.909Z,65.7
2022-08-26T16:53:05.859Z,66.6
2022-08-26T16:58:05.850Z,67.3
2022-08-26T17:03:05.836Z,67.8
2022-08-26T17:08:05.836Z,68.1
2022-08-26T17:13:05.828Z,68.4
2022-08-26T17:18:05.774Z,69
2022-08-26T17:23:05.808Z,69.5
2022-08-26T17:28:06.282Z,70.5
2022-08-26T17:33:10.748Z,71.3
2022-08-26T17:38:05.774Z,72.1
2022-08-26T17:43:09.108Z,72.8
2022-08-26T17:48:05.743Z,73.5
2022-08-26T17:53:05.729Z,74
2022-08-26T17:58:06.194Z,76.1
2022-08-26T18:08:05.715Z,77.6
2022-08-26T18:13:05.719Z,78.4
2022-08-26T18:18:05.693Z,79
2022-08-26T18:38:10.564Z,80.4
2022-08-26T18:43:05.648Z,81.5
2022-08-26T18:53:05.653Z,81.9
2022-08-26T19:03:05.852Z,80.7
2022-08-26T19:08:05.653Z,80.9
2022-08-26T19:23:10.465Z,81.9
2022-08-26T19:53:05.569Z,84.4
2022-08-26T19:58:05.548Z,84.7
2022-08-26T20:03:05.595Z,85.1
2022-08-26T20:13:05.535Z,86
2022-08-26T20:18:05.611Z,86.4
2022-08-26T20:23:05.551Z,86.9
2022-08-26T20:33:05.512Z,87
2022-08-26T20:48:05.489Z,88.1
2022-08-26T20:53:05.475Z,88.1
2022-08-26T20:58:05.482Z,88.1
2022-08-26T21:03:05.478Z,87.7
2022-08-26T21:08:05.557Z,87.6
2022-08-26T21:13:05.457Z,88.1
2022-08-26T21:18:05.462Z,88.2
2022-08-26T21:23:05.433Z,87.3
2022-08-26T21:28:05.494Z,86.7
2022-08-26T21:33:05.426Z,84.6
2022-08-26T21:38:05.436Z,84.1
2022-08-26T21:43:05.431Z,83.8
2022-08-26T21:48:05.400Z,83.5
2022-08-26T21:53:05.401Z,84
2022-08-26T21:58:05.399Z,84.7
2022-08-26T22:13:05.399Z,87.4
2022-08-26T22:18:05.460Z,87.8
2022-08-26T22:23:05.360Z,88.2
2022-08-26T22:28:05.341Z,88.1
2022-08-26T22:33:05.368Z,88.6
2022-08-26T22:38:05.361Z,88.5
2022-08-26T22:43:05.318Z,88.8
2022-08-26T22:48:05.361Z,88.9
2022-08-26T22:53:05.312Z,88.7
2022-08-26T22:58:05.334Z,87.8
2022-08-26T23:03:05.342Z,86.8
2022-08-26T23:08:05.305Z,86.5
2022-08-26T23:13:05.306Z,86.5
2022-08-26T23:18:05.272Z,85.6
2022-08-26T23:23:05.270Z,85
2022-08-26T23:28:05.296Z,84.1
2022-08-26T23:33:05.274Z,84.8
2022-08-26T23:38:05.257Z,86.2
2022-08-26T23:43:05.267Z,87.5
2022-08-26T23:48:05.239Z,89
2022-08-26T23:53:05.230Z,89.7
2022-08-26T23:58:05.253Z,91.2
